sensor_id;sensor_type;location;lat;lon;timestamp;temperature;humidity
11009;DHT22;5557;51.670;7.788;2023-09-12T00:00:53;20.50;50.60
11009;DHT22;5557;51.670;7.788;2023-09-12T00:03:22;20.50;50.80
11009;DHT22;5557;51.670;7.788;2023-09-12T00:05:58;20.50;51.50
11009;DHT22;5557;51.670;7.788;2023-09-12T00:08:27;20.50;52.50
11009;DHT22;5557;51.670;7.788;2023-09-12T00:11:05;20.50;53.90
11009;DHT22;5557;51.670;7.788;2023-09-12T00:13:33;20.50;55.30
11009;DHT22;5557;51.670;7.788;2023-09-12T00:16:01;20.50;55.80
11009;DHT22;5557;51.670;7.788;2023-09-12T00:18:29;20.50;56.20
11009;DHT22;5557;51.670;7.788;2023-09-12T00:20:56;20.40;58.60
11009;DHT22;5557;51.670;7.788;2023-09-12T00:23:23;20.30;60.60
11009;DHT22;5557;51.670;7.788;2023-09-12T00:25:51;20.10;63.30
11009;DHT22;5557;51.670;7.788;2023-09-12T00:28:21;20.00;69.20
11009;DHT22;5557;51.670;7.788;2023-09-12T00:30:51;20.00;74.20
11009;DHT22;5557;51.670;7.788;2023-09-12T00:33:18;19.90;75.90
11009;DHT22;5557;51.670;7.788;2023-09-12T00:35:45;19.80;78.40
11009;DHT22;5557;51.670;7.788;2023-09-12T00:38:12;19.70;82.00
11009;DHT22;5557;51.670;7.788;2023-09-12T00:40:40;19.60;85.50
11009;DHT22;5557;51.670;7.788;2023-09-12T00:43:07;19.60;89.90
11009;DHT22;5557;51.670;7.788;2023-09-12T00:45:33;19.50;91.20
11009;DHT22;5557;51.670;7.788;2023-09-12T00:48:03;19.50;92.00
11009;DHT22;5557;51.670;7.788;2023-09-12T00:50:32;19.50;93.00
11009;DHT22;5557;51.670;7.788;2023-09-12T00:53:00;19.40;94.70
11009;DHT22;5557;51.670;7.788;2023-09-12T00:55:29;19.40;95.70
11009;DHT22;5557;51.670;7.788;2023-09-12T00:57:58;19.30;97.20
11009;DHT22;5557;51.670;7.788;2023-09-12T01:00:26;19.30;98.90
11009;DHT22;5557;51.670;7.788;2023-09-12T01:02:53;19.30;99.60
11009;DHT22;5557;51.670;7.788;2023-09-12T01:05:22;19.30;99.90
11009;DHT22;5557;51.670;7.788;2023-09-12T01:07:49;19.20;99.90
11009;DHT22;5557;51.670;7.788;2023-09-12T01:10:17;19.20;99.90
11009;DHT22;5557;51.670;7.788;2023-09-12T01:12:46;19.20;99.90
11009;DHT22;5557;51.670;7.788;2023-09-12T01:15:13;19.20;99.90
11009;DHT22;5557;51.670;7.788;2023-09-12T01:17:45;19.20;99.90
11009;DHT22;5557;51.670;7.788;2023-09-12T01:20:22;19.10;99.90
11009;DHT22;5557;51.670;7.788;2023-09-12T01:23:08;19.10;99.90
11009;DHT22;5557;51.670;7.788;2023-09-12T01:26:27;19.10;99.90
11009;DHT22;5557;51.670;7.788;2023-09-12T01:28:58;19.00;99.90
11009;DHT22;5557;51.670;7.788;2023-09-12T01:31:27;19.00;99.90
11009;DHT22;5557;51.670;7.788;2023-09-12T01:33:57;19.10;99.90
11009;DHT22;5557;51.670;7.788;2023-09-12T01:36:24;19.20;99.90
11009;DHT22;5557;51.670;7.788;2023-09-12T01:38:52;19.30;99.90
11009;DHT22;5557;51.670;7.788;2023-09-12T01:41:20;19.40;99.90
11009;DHT22;5557;51.670;7.788;2023-09-12T01:43:48;19.50;99.90
11009;DHT22;5557;51.670;7.788;2023-09-12T01:46:19;19.50;99.90
11009;DHT22;5557;51.670;7.788;2023-09-12T01:48:47;19.50;99.90
11009;DHT22;5557;51.670;7.788;2023-09-12T01:51:19;19.50;99.90
11009;DHT22;5557;51.670;7.788;2023-09-12T01:53:47;19.40;99.90
11009;DHT22;5557;51.670;7.788;2023-09-12T01:56:15;19.30;99.90
11009;DHT22;5557;51.670;7.788;2023-09-12T01:58:43;19.30;99.90
11009;DHT22;5557;51.670;7.788;2023-09-12T02:01:11;19.30;99.90
11009;DHT22;5557;51.670;7.788;2023-09-12T02:03:38;19.30;99.90
11009;DHT22;5557;51.670;7.788;2023-09-12T02:06:05;19.30;99.90
11009;DHT22;5557;51.670;7.788;2023-09-12T02:08:33;19.30;99.90
11009;DHT22;5557;51.670;7.788;2023-09-12T02:11:01;19.30;99.90
11009;DHT22;5557;51.670;7.788;2023-09-12T02:13:28;19.30;99.90
11009;DHT22;5557;51.670;7.788;2023-09-12T02:16:01;19.20;99.90
11009;DHT22;5557;51.670;7.788;2023-09-12T02:18:30;19.20;99.90
11009;DHT22;5557;51.670;7.788;2023-09-12T02:21:00;19.20;99.90
11009;DHT22;5557;51.670;7.788;2023-09-12T02:23:28;19.20;99.90
11009;DHT22;5557;51.670;7.788;2023-09-12T02:25:56;19.20;99.90
11009;DHT22;5557;51.670;7.788;2023-09-12T02:28:23;19.20;99.90
11009;DHT22;5557;51.670;7.788;2023-09-12T02:30:50;19.20;99.90
11009;DHT22;5557;51.670;7.788;2023-09-12T02:33:17;19.20;99.90
11009;DHT22;5557;51.670;7.788;2023-09-12T02:35:44;19.20;99.90
11009;DHT22;5557;51.670;7.788;2023-09-12T02:38:13;19.20;99.90
11009;DHT22;5557;51.670;7.788;2023-09-12T02:40:40;19.20;99.90
11009;DHT22;5557;51.670;7.788;2023-09-12T02:43:08;19.20;99.90
11009;DHT22;5557;51.670;7.788;2023-09-12T02:45:35;19.20;99.90
11009;DHT22;5557;51.670;7.788;2023-09-12T02:48:02;19.20;99.90
11009;DHT22;5557;51.670;7.788;2023-09-12T02:50:29;19.20;99.90
11009;DHT22;5557;51.670;7.788;2023-09-12T02:52:56;19.20;99.90
11009;DHT22;5557;51.670;7.788;2023-09-12T02:55:23;19.30;99.90
11009;DHT22;5557;51.670;7.788;2023-09-12T02:57:51;19.40;99.90
11009;DHT22;5557;51.670;7.788;2023-09-12T03:00:18;19.40;99.90
11009;DHT22;5557;51.670;7.788;2023-09-12T03:02:46;19.40;99.90
11009;DHT22;5557;51.670;7.788;2023-09-12T03:05:13;19.40;99.90
11009;DHT22;5557;51.670;7.788;2023-09-12T03:07:41;19.40;99.90
11009;DHT22;5557;51.670;7.788;2023-09-12T03:10:08;19.40;99.90
11009;DHT22;5557;51.670;7.788;2023-09-12T03:12:36;19.30;99.90
11009;DHT22;5557;51.670;7.788;2023-09-12T03:15:04;19.20;99.90
11009;DHT22;5557;51.670;7.788;2023-09-12T03:17:35;19.20;99.90
11009;DHT22;5557;51.670;7.788;2023-09-12T03:20:03;19.10;99.90
11009;DHT22;5557;51.670;7.788;2023-09-12T03:22:34;19.10;99.90
11009;DHT22;5557;51.670;7.788;2023-09-12T03:25:36;19.00;99.90
11009;DHT22;5557;51.670;7.788;2023-09-12T03:28:07;19.00;99.90
11009;DHT22;5557;51.670;7.788;2023-09-12T03:30:35;19.00;99.90
11009;DHT22;5557;51.670;7.788;2023-09-12T03:33:03;19.00;99.90
11009;DHT22;5557;51.670;7.788;2023-09-12T03:35:32;18.90;99.90
11009;DHT22;5557;51.670;7.788;2023-09-12T03:38:00;18.90;99.90
11009;DHT22;5557;51.670;7.788;2023-09-12T03:40:31;19.00;99.90
11009;DHT22;5557;51.670;7.788;2023-09-12T03:42:58;19.00;99.90
11009;DHT22;5557;51.670;7.788;2023-09-12T03:45:25;19.10;99.90
11009;DHT22;5557;51.670;7.788;2023-09-12T03:47:52;19.10;99.90
11009;DHT22;5557;51.670;7.788;2023-09-12T03:50:20;19.10;99.90
11009;DHT22;5557;51.670;7.788;2023-09-12T03:52:47;19.10;99.90
11009;DHT22;5557;51.670;7.788;2023-09-12T03:55:14;19.10;99.90
11009;DHT22;5557;51.670;7.788;2023-09-12T03:57:41;19.20;99.90
11009;DHT22;5557;51.670;7.788;2023-09-12T04:00:09;19.30;99.90
11009;DHT22;5557;51.670;7.788;2023-09-12T04:02:37;19.30;99.90
11009;DHT22;5557;51.670;7.788;2023-09-12T04:05:04;19.30;99.90
11009;DHT22;5557;51.670;7.788;2023-09-12T04:07:31;19.30;99.90
11009;DHT22;5557;51.670;7.788;2023-09-12T04:09:58;19.30;99.90
11009;DHT22;5557;51.670;7.788;2023-09-12T04:12:27;19.30;99.90
11009;DHT22;5557;51.670;7.788;2023-09-12T04:14:54;19.30;99.90
11009;DHT22;5557;51.670;7.788;2023-09-12T04:17:21;19.30;99.90
11009;DHT22;5557;51.670;7.788;2023-09-12T04:19:49;19.30;99.90
11009;DHT22;5557;51.670;7.788;2023-09-12T04:22:15;19.30;99.90
11009;DHT22;5557;51.670;7.788;2023-09-12T04:24:42;19.30;99.90
11009;DHT22;5557;51.670;7.788;2023-09-12T04:27:09;19.30;99.90
11009;DHT22;5557;51.670;7.788;2023-09-12T04:29:36;19.20;99.90
11009;DHT22;5557;51.670;7.788;2023-09-12T04:32:07;19.20;99.90
11009;DHT22;5557;51.670;7.788;2023-09-12T04:34:35;19.20;99.90
11009;DHT22;5557;51.670;7.788;2023-09-12T04:37:02;19.20;99.90
11009;DHT22;5557;51.670;7.788;2023-09-12T04:39:29;19.30;99.90
11009;DHT22;5557;51.670;7.788;2023-09-12T04:41:57;19.20;99.90
11009;DHT22;5557;51.670;7.788;2023-09-12T04:44:24;19.10;99.90
11009;DHT22;5557;51.670;7.788;2023-09-12T04:46:53;19.10;99.90
11009;DHT22;5557;51.670;7.788;2023-09-12T04:49:21;19.00;99.90
11009;DHT22;5557;51.670;7.788;2023-09-12T04:51:49;19.00;99.90
11009;DHT22;5557;51.670;7.788;2023-09-12T04:54:16;19.00;99.90
11009;DHT22;5557;51.670;7.788;2023-09-12T04:56:43;18.90;99.90
11009;DHT22;5557;51.670;7.788;2023-09-12T04:59:10;18.80;99.90
11009;DHT22;5557;51.670;7.788;2023-09-12T05:01:37;18.80;99.90
11009;DHT22;5557;51.670;7.788;2023-09-12T05:04:06;18.80;99.90
11009;DHT22;5557;51.670;7.788;2023-09-12T05:06:33;18.70;99.90
11009;DHT22;5557;51.670;7.788;2023-09-12T05:09:01;18.80;99.90
11009;DHT22;5557;51.670;7.788;2023-09-12T05:11:28;18.70;99.90
11009;DHT22;5557;51.670;7.788;2023-09-12T05:13:57;18.70;99.90
11009;DHT22;5557;51.670;7.788;2023-09-12T05:16:26;18.80;99.90
11009;DHT22;5557;51.670;7.788;2023-09-12T05:18:53;18.80;99.90
11009;DHT22;5557;51.670;7.788;2023-09-12T05:21:23;18.70;99.90
11009;DHT22;5557;51.670;7.788;2023-09-12T05:23:50;18.70;99.90
11009;DHT22;5557;51.670;7.788;2023-09-12T05:26:17;18.60;99.90
11009;DHT22;5557;51.670;7.788;2023-09-12T05:28:44;18.60;99.90
11009;DHT22;5557;51.670;7.788;2023-09-12T05:31:12;18.60;99.90
11009;DHT22;5557;51.670;7.788;2023-09-12T05:33:39;18.60;99.90
11009;DHT22;5557;51.670;7.788;2023-09-12T05:36:06;18.60;99.90
11009;DHT22;5557;51.670;7.788;2023-09-12T05:38:33;18.60;99.90
11009;DHT22;5557;51.670;7.788;2023-09-12T05:41:00;18.60;99.90
11009;DHT22;5557;51.670;7.788;2023-09-12T05:43:28;18.60;99.90
11009;DHT22;5557;51.670;7.788;2023-09-12T05:45:56;18.60;99.90
11009;DHT22;5557;51.670;7.788;2023-09-12T05:48:24;18.50;99.90
11009;DHT22;5557;51.670;7.788;2023-09-12T05:50:54;18.50;99.90
11009;DHT22;5557;51.670;7.788;2023-09-12T05:53:21;18.50;99.90
11009;DHT22;5557;51.670;7.788;2023-09-12T05:55:48;18.50;99.90
11009;DHT22;5557;51.670;7.788;2023-09-12T05:58:15;18.50;99.90
11009;DHT22;5557;51.670;7.788;2023-09-12T06:00:43;18.30;99.90
11009;DHT22;5557;51.670;7.788;2023-09-12T06:03:12;18.30;99.90
11009;DHT22;5557;51.670;7.788;2023-09-12T06:05:39;18.10;99.90
11009;DHT22;5557;51.670;7.788;2023-09-12T06:08:06;18.10;99.90
11009;DHT22;5557;51.670;7.788;2023-09-12T06:10:33;18.10;99.90
11009;DHT22;5557;51.670;7.788;2023-09-12T06:13:00;18.10;99.90
11009;DHT22;5557;51.670;7.788;2023-09-12T06:15:27;18.00;99.90
11009;DHT22;5557;51.670;7.788;2023-09-12T06:17:54;18.00;99.90
11009;DHT22;5557;51.670;7.788;2023-09-12T06:20:22;17.90;99.90
11009;DHT22;5557;51.670;7.788;2023-09-12T06:22:49;17.90;99.90
11009;DHT22;5557;51.670;7.788;2023-09-12T06:25:16;18.10;99.90
11009;DHT22;5557;51.670;7.788;2023-09-12T06:27:43;18.10;99.90
11009;DHT22;5557;51.670;7.788;2023-09-12T06:30:11;18.20;99.90
11009;DHT22;5557;51.670;7.788;2023-09-12T06:32:39;18.10;99.90
11009;DHT22;5557;51.670;7.788;2023-09-12T06:35:06;18.10;99.90
11009;DHT22;5557;51.670;7.788;2023-09-12T06:37:34;18.10;99.90
11009;DHT22;5557;51.670;7.788;2023-09-12T06:40:01;18.20;99.90
11009;DHT22;5557;51.670;7.788;2023-09-12T06:42:28;18.20;99.90
11009;DHT22;5557;51.670;7.788;2023-09-12T06:44:55;18.20;99.90
11009;DHT22;5557;51.670;7.788;2023-09-12T06:47:22;18.20;99.90
11009;DHT22;5557;51.670;7.788;2023-09-12T06:49:51;18.20;99.90
11009;DHT22;5557;51.670;7.788;2023-09-12T06:52:22;18.30;99.90
11009;DHT22;5557;51.670;7.788;2023-09-12T06:54:49;18.30;99.90
11009;DHT22;5557;51.670;7.788;2023-09-12T06:57:16;18.20;99.90
11009;DHT22;5557;51.670;7.788;2023-09-12T06:59:44;18.20;99.90
11009;DHT22;5557;51.670;7.788;2023-09-12T07:02:11;18.20;99.90
11009;DHT22;5557;51.670;7.788;2023-09-12T07:04:39;18.20;99.90
11009;DHT22;5557;51.670;7.788;2023-09-12T07:07:06;18.20;99.90
11009;DHT22;5557;51.670;7.788;2023-09-12T07:09:33;18.20;99.90
11009;DHT22;5557;51.670;7.788;2023-09-12T07:12:00;18.20;99.90
11009;DHT22;5557;51.670;7.788;2023-09-12T07:14:27;18.20;99.90
11009;DHT22;5557;51.670;7.788;2023-09-12T07:16:56;18.10;99.90
11009;DHT22;5557;51.670;7.788;2023-09-12T07:19:23;18.10;99.90
11009;DHT22;5557;51.670;7.788;2023-09-12T07:21:51;18.10;99.90
11009;DHT22;5557;51.670;7.788;2023-09-12T07:24:18;18.10;99.90
11009;DHT22;5557;51.670;7.788;2023-09-12T07:26:45;18.10;99.90
11009;DHT22;5557;51.670;7.788;2023-09-12T07:29:13;18.20;99.90
11009;DHT22;5557;51.670;7.788;2023-09-12T07:31:40;18.30;99.90
11009;DHT22;5557;51.670;7.788;2023-09-12T07:34:09;18.20;99.90
11009;DHT22;5557;51.670;7.788;2023-09-12T07:36:37;18.10;99.90
11009;DHT22;5557;51.670;7.788;2023-09-12T07:39:04;18.10;99.90
11009;DHT22;5557;51.670;7.788;2023-09-12T07:41:31;18.10;99.90
11009;DHT22;5557;51.670;7.788;2023-09-12T07:43:58;18.10;99.90
11009;DHT22;5557;51.670;7.788;2023-09-12T07:46:28;17.90;99.90
11009;DHT22;5557;51.670;7.788;2023-09-12T07:48:55;18.00;99.90
11009;DHT22;5557;51.670;7.788;2023-09-12T07:51:23;18.00;99.90
11009;DHT22;5557;51.670;7.788;2023-09-12T07:53:53;17.90;99.90
11009;DHT22;5557;51.670;7.788;2023-09-12T07:56:20;17.90;99.90
11009;DHT22;5557;51.670;7.788;2023-09-12T07:58:49;17.90;99.90
11009;DHT22;5557;51.670;7.788;2023-09-12T08:01:17;17.90;99.90
11009;DHT22;5557;51.670;7.788;2023-09-12T08:03:44;17.90;99.90
11009;DHT22;5557;51.670;7.788;2023-09-12T08:06:12;17.90;99.90
11009;DHT22;5557;51.670;7.788;2023-09-12T08:08:43;17.90;99.90
11009;DHT22;5557;51.670;7.788;2023-09-12T08:11:12;17.90;99.90
11009;DHT22;5557;51.670;7.788;2023-09-12T08:13:39;18.00;99.90
11009;DHT22;5557;51.670;7.788;2023-09-12T08:16:07;18.00;99.90
11009;DHT22;5557;51.670;7.788;2023-09-12T08:18:35;18.00;99.90
11009;DHT22;5557;51.670;7.788;2023-09-12T08:21:02;18.10;99.90
11009;DHT22;5557;51.670;7.788;2023-09-12T08:23:29;18.00;99.90
11009;DHT22;5557;51.670;7.788;2023-09-12T08:25:59;18.00;99.90
11009;DHT22;5557;51.670;7.788;2023-09-12T08:28:26;18.00;99.90
11009;DHT22;5557;51.670;7.788;2023-09-12T08:30:55;18.10;99.90
11009;DHT22;5557;51.670;7.788;2023-09-12T08:33:23;18.10;99.90
11009;DHT22;5557;51.670;7.788;2023-09-12T08:36:06;18.10;99.90
11009;DHT22;5557;51.670;7.788;2023-09-12T08:38:33;18.00;99.90
11009;DHT22;5557;51.670;7.788;2023-09-12T08:41:00;18.00;99.90
11009;DHT22;5557;51.670;7.788;2023-09-12T08:43:27;18.00;99.90
11009;DHT22;5557;51.670;7.788;2023-09-12T08:45:58;18.10;99.90
11009;DHT22;5557;51.670;7.788;2023-09-12T08:48:27;18.10;99.90
11009;DHT22;5557;51.670;7.788;2023-09-12T08:50:57;18.20;99.90
11009;DHT22;5557;51.670;7.788;2023-09-12T08:53:28;18.10;99.90
11009;DHT22;5557;51.670;7.788;2023-09-12T08:55:55;18.10;99.90
11009;DHT22;5557;51.670;7.788;2023-09-12T08:58:26;18.20;99.90
11009;DHT22;5557;51.670;7.788;2023-09-12T09:00:54;18.20;99.90
11009;DHT22;5557;51.670;7.788;2023-09-12T09:03:25;18.30;99.90
11009;DHT22;5557;51.670;7.788;2023-09-12T09:05:54;18.20;99.90
11009;DHT22;5557;51.670;7.788;2023-09-12T09:08:23;18.20;99.90
11009;DHT22;5557;51.670;7.788;2023-09-12T09:10:58;18.20;99.90
11009;DHT22;5557;51.670;7.788;2023-09-12T09:13:26;18.00;99.90
11009;DHT22;5557;51.670;7.788;2023-09-12T09:16:17;18.10;99.90
11009;DHT22;5557;51.670;7.788;2023-09-12T09:19:00;18.00;99.90
11009;DHT22;5557;51.670;7.788;2023-09-12T09:21:32;18.10;99.90
11009;DHT22;5557;51.670;7.788;2023-09-12T09:24:01;18.10;99.90
11009;DHT22;5557;51.670;7.788;2023-09-12T09:27:03;18.10;99.90
11009;DHT22;5557;51.670;7.788;2023-09-12T09:29:30;18.10;99.90
11009;DHT22;5557;51.670;7.788;2023-09-12T09:32:00;18.10;99.90
11009;DHT22;5557;51.670;7.788;2023-09-12T09:34:30;18.10;99.90
11009;DHT22;5557;51.670;7.788;2023-09-12T09:37:02;18.10;99.90
11009;DHT22;5557;51.670;7.788;2023-09-12T09:39:29;18.10;99.90
11009;DHT22;5557;51.670;7.788;2023-09-12T09:41:57;18.20;99.90
11009;DHT22;5557;51.670;7.788;2023-09-12T09:44:26;18.20;99.90
11009;DHT22;5557;51.670;7.788;2023-09-12T09:47:00;18.30;99.90
11009;DHT22;5557;51.670;7.788;2023-09-12T09:49:32;18.20;99.90
11009;DHT22;5557;51.670;7.788;2023-09-12T09:52:03;18.30;99.90
11009;DHT22;5557;51.670;7.788;2023-09-12T09:54:31;18.30;99.90
11009;DHT22;5557;51.670;7.788;2023-09-12T09:57:01;18.40;99.90
11009;DHT22;5557;51.670;7.788;2023-09-12T09:59:29;18.40;99.90
11009;DHT22;5557;51.670;7.788;2023-09-12T10:01:59;18.40;99.90
11009;DHT22;5557;51.670;7.788;2023-09-12T10:04:29;18.40;99.90
11009;DHT22;5557;51.670;7.788;2023-09-12T10:07:10;18.40;99.90
11009;DHT22;5557;51.670;7.788;2023-09-12T10:09:38;18.40;99.90
11009;DHT22;5557;51.670;7.788;2023-09-12T10:12:07;18.40;99.90
11009;DHT22;5557;51.670;7.788;2023-09-12T10:14:35;18.60;99.90
11009;DHT22;5557;51.670;7.788;2023-09-12T10:17:03;18.80;99.90
11009;DHT22;5557;51.670;7.788;2023-09-12T10:19:46;19.00;99.90
11009;DHT22;5557;51.670;7.788;2023-09-12T10:25:13;19.70;99.90
11009;DHT22;5557;51.670;7.788;2023-09-12T10:27:41;20.30;99.90
11009;DHT22;5557;51.670;7.788;2023-09-12T10:30:08;20.50;99.90
11009;DHT22;5557;51.670;7.788;2023-09-12T10:32:36;20.90;99.90
11009;DHT22;5557;51.670;7.788;2023-09-12T10:35:06;21.40;98.30
11009;DHT22;5557;51.670;7.788;2023-09-12T10:37:35;21.60;82.30
11009;DHT22;5557;51.670;7.788;2023-09-12T10:40:05;21.40;73.90
11009;DHT22;5557;51.670;7.788;2023-09-12T10:42:35;21.50;82.80
11009;DHT22;5557;51.670;7.788;2023-09-12T10:45:03;22.00;75.00
11009;DHT22;5557;51.670;7.788;2023-09-12T10:47:32;22.30;61.20
11009;DHT22;5557;51.670;7.788;2023-09-12T10:49:59;22.30;52.70
11009;DHT22;5557;51.670;7.788;2023-09-12T10:52:28;22.60;55.50
11009;DHT22;5557;51.670;7.788;2023-09-12T10:54:57;22.90;50.60
11009;DHT22;5557;51.670;7.788;2023-09-12T10:57:25;23.10;38.70
11009;DHT22;5557;51.670;7.788;2023-09-12T11:00:23;22.90;35.40
11009;DHT22;5557;51.670;7.788;2023-09-12T11:02:50;22.90;33.50
11009;DHT22;5557;51.670;7.788;2023-09-12T11:08:12;23.60;19.60
11009;DHT22;5557;51.670;7.788;2023-09-12T11:10:39;24.00;16.30
11009;DHT22;5557;51.670;7.788;2023-09-12T11:13:17;24.10;14.10
11009;DHT22;5557;51.670;7.788;2023-09-12T11:16:11;24.30;14.70
11009;DHT22;5557;51.670;7.788;2023-09-12T11:21:49;25.00;8.00
11009;DHT22;5557;51.670;7.788;2023-09-12T11:24:17;25.10;6.40
11009;DHT22;5557;51.670;7.788;2023-09-12T11:27:01;25.20;4.70
11009;DHT22;5557;51.670;7.788;2023-09-12T11:29:41;25.40;1.00
11009;DHT22;5557;51.670;7.788;2023-09-12T11:32:08;25.70;1.00
11009;DHT22;5557;51.670;7.788;2023-09-12T11:34:38;25.70;1.30
11009;DHT22;5557;51.670;7.788;2023-09-12T11:37:05;25.80;1.10
11009;DHT22;5557;51.670;7.788;2023-09-12T11:39:34;25.90;1.00
11009;DHT22;5557;51.670;7.788;2023-09-12T11:42:03;26.00;1.00
11009;DHT22;5557;51.670;7.788;2023-09-12T11:44:31;25.80;1.00
11009;DHT22;5557;51.670;7.788;2023-09-12T11:47:01;25.40;1.00
11009;DHT22;5557;51.670;7.788;2023-09-12T11:49:38;25.00;1.00
11009;DHT22;5557;51.670;7.788;2023-09-12T11:52:12;24.60;1.00
11009;DHT22;5557;51.670;7.788;2023-09-12T11:54:43;24.40;9.30
11009;DHT22;5557;51.670;7.788;2023-09-12T11:57:14;24.50;10.90
11009;DHT22;5557;51.670;7.788;2023-09-12T11:59:44;24.90;7.40
11009;DHT22;5557;51.670;7.788;2023-09-12T12:02:18;25.30;6.70
11009;DHT22;5557;51.670;7.788;2023-09-12T12:04:45;25.60;2.60
11009;DHT22;5557;51.670;7.788;2023-09-12T12:07:13;25.70;4.20
11009;DHT22;5557;51.670;7.788;2023-09-12T12:09:41;25.70;1.00
11009;DHT22;5557;51.670;7.788;2023-09-12T12:12:36;25.60;1.00
11009;DHT22;5557;51.670;7.788;2023-09-12T12:15:03;25.60;1.00
11009;DHT22;5557;51.670;7.788;2023-09-12T12:17:54;25.40;1.00
11009;DHT22;5557;51.670;7.788;2023-09-12T12:20:23;25.40;1.00
11009;DHT22;5557;51.670;7.788;2023-09-12T12:22:51;25.50;1.00
11009;DHT22;5557;51.670;7.788;2023-09-12T12:25:19;25.50;1.00
11009;DHT22;5557;51.670;7.788;2023-09-12T12:27:46;25.60;1.00
11009;DHT22;5557;51.670;7.788;2023-09-12T12:30:14;25.60;1.00
11009;DHT22;5557;51.670;7.788;2023-09-12T12:32:43;25.50;1.00
11009;DHT22;5557;51.670;7.788;2023-09-12T12:35:17;25.60;1.00
11009;DHT22;5557;51.670;7.788;2023-09-12T12:38:05;25.70;1.00
11009;DHT22;5557;51.670;7.788;2023-09-12T12:40:38;25.80;1.00
11009;DHT22;5557;51.670;7.788;2023-09-12T12:43:18;25.90;1.00
11009;DHT22;5557;51.670;7.788;2023-09-12T12:45:58;25.90;1.00
11009;DHT22;5557;51.670;7.788;2023-09-12T12:48:33;25.90;1.00
11009;DHT22;5557;51.670;7.788;2023-09-12T12:51:16;25.90;1.00
11009;DHT22;5557;51.670;7.788;2023-09-12T12:53:48;25.80;1.00
11009;DHT22;5557;51.670;7.788;2023-09-12T12:56:26;25.90;1.00
11009;DHT22;5557;51.670;7.788;2023-09-12T12:58:59;25.80;1.00
11009;DHT22;5557;51.670;7.788;2023-09-12T13:01:30;25.70;1.00
11009;DHT22;5557;51.670;7.788;2023-09-12T13:03:57;25.70;1.00
11009;DHT22;5557;51.670;7.788;2023-09-12T13:06:25;25.80;1.00
11009;DHT22;5557;51.670;7.788;2023-09-12T13:08:56;25.80;1.00
11009;DHT22;5557;51.670;7.788;2023-09-12T13:11:24;25.90;1.00
11009;DHT22;5557;51.670;7.788;2023-09-12T13:13:57;26.00;1.00
11009;DHT22;5557;51.670;7.788;2023-09-12T13:16:26;26.00;1.00
11009;DHT22;5557;51.670;7.788;2023-09-12T13:18:53;26.00;1.00
11009;DHT22;5557;51.670;7.788;2023-09-12T13:21:22;25.90;1.00
11009;DHT22;5557;51.670;7.788;2023-09-12T13:23:49;25.60;1.00
11009;DHT22;5557;51.670;7.788;2023-09-12T13:26:17;25.30;1.00
11009;DHT22;5557;51.670;7.788;2023-09-12T13:28:44;25.10;2.20
11009;DHT22;5557;51.670;7.788;2023-09-12T13:31:11;24.80;4.80
11009;DHT22;5557;51.670;7.788;2023-09-12T13:33:40;24.60;7.60
11009;DHT22;5557;51.670;7.788;2023-09-12T13:36:10;24.40;7.40
11009;DHT22;5557;51.670;7.788;2023-09-12T13:38:37;24.30;10.80
11009;DHT22;5557;51.670;7.788;2023-09-12T13:41:04;24.30;11.20
11009;DHT22;5557;51.670;7.788;2023-09-12T13:43:31;24.30;12.50
11009;DHT22;5557;51.670;7.788;2023-09-12T13:45:58;24.40;10.70
11009;DHT22;5557;51.670;7.788;2023-09-12T13:48:25;24.40;11.20
11009;DHT22;5557;51.670;7.788;2023-09-12T13:50:53;24.60;12.40
11009;DHT22;5557;51.670;7.788;2023-09-12T13:53:20;24.80;11.00
11009;DHT22;5557;51.670;7.788;2023-09-12T13:55:47;24.80;9.80
11009;DHT22;5557;51.670;7.788;2023-09-12T13:58:34;24.80;8.30
11009;DHT22;5557;51.670;7.788;2023-09-12T14:01:09;24.80;9.50
11009;DHT22;5557;51.670;7.788;2023-09-12T14:03:40;24.80;6.50
11009;DHT22;5557;51.670;7.788;2023-09-12T14:06:08;24.70;7.00
11009;DHT22;5557;51.670;7.788;2023-09-12T14:08:36;24.60;9.50
11009;DHT22;5557;51.670;7.788;2023-09-12T14:11:04;24.60;10.90
11009;DHT22;5557;51.670;7.788;2023-09-12T14:13:42;24.60;9.60
11009;DHT22;5557;51.670;7.788;2023-09-12T14:16:10;24.50;11.00
11009;DHT22;5557;51.670;7.788;2023-09-12T14:18:38;24.50;10.00
11009;DHT22;5557;51.670;7.788;2023-09-12T14:21:09;24.50;8.90
11009;DHT22;5557;51.670;7.788;2023-09-12T14:23:36;24.40;9.80
11009;DHT22;5557;51.670;7.788;2023-09-12T14:26:03;24.40;10.60
11009;DHT22;5557;51.670;7.788;2023-09-12T14:28:31;24.50;8.90
11009;DHT22;5557;51.670;7.788;2023-09-12T14:31:02;24.60;7.80
11009;DHT22;5557;51.670;7.788;2023-09-12T14:33:32;24.60;7.50
11009;DHT22;5557;51.670;7.788;2023-09-12T14:35:59;24.60;5.70
11009;DHT22;5557;51.670;7.788;2023-09-12T14:38:28;24.70;5.80
11009;DHT22;5557;51.670;7.788;2023-09-12T14:40:55;24.70;3.30
11009;DHT22;5557;51.670;7.788;2023-09-12T14:43:23;24.80;4.30
11009;DHT22;5557;51.670;7.788;2023-09-12T14:45:50;24.60;5.70
11009;DHT22;5557;51.670;7.788;2023-09-12T14:48:17;24.70;7.10
11009;DHT22;5557;51.670;7.788;2023-09-12T14:50:45;24.70;7.40
11009;DHT22;5557;51.670;7.788;2023-09-12T14:53:16;24.60;6.20
11009;DHT22;5557;51.670;7.788;2023-09-12T14:55:43;24.50;7.70
11009;DHT22;5557;51.670;7.788;2023-09-12T14:58:10;24.40;6.40
11009;DHT22;5557;51.670;7.788;2023-09-12T15:00:37;24.20;6.50
11009;DHT22;5557;51.670;7.788;2023-09-12T15:03:07;24.20;10.10
11009;DHT22;5557;51.670;7.788;2023-09-12T15:05:34;24.20;9.50
11009;DHT22;5557;51.670;7.788;2023-09-12T15:08:01;24.30;10.60
11009;DHT22;5557;51.670;7.788;2023-09-12T15:10:28;24.30;9.10
11009;DHT22;5557;51.670;7.788;2023-09-12T15:12:56;24.20;10.10
11009;DHT22;5557;51.670;7.788;2023-09-12T15:15:23;24.20;11.30
11009;DHT22;5557;51.670;7.788;2023-09-12T15:17:52;24.10;12.70
11009;DHT22;5557;51.670;7.788;2023-09-12T15:20:20;24.20;12.60
11009;DHT22;5557;51.670;7.788;2023-09-12T15:22:49;24.20;11.70
11009;DHT22;5557;51.670;7.788;2023-09-12T15:25:16;24.20;12.80
11009;DHT22;5557;51.670;7.788;2023-09-12T15:27:43;24.20;12.00
11009;DHT22;5557;51.670;7.788;2023-09-12T15:30:12;24.10;13.10
11009;DHT22;5557;51.670;7.788;2023-09-12T15:32:39;24.10;11.70
11009;DHT22;5557;51.670;7.788;2023-09-12T15:35:07;24.00;11.80
11009;DHT22;5557;51.670;7.788;2023-09-12T15:37:35;24.00;11.40
11009;DHT22;5557;51.670;7.788;2023-09-12T15:40:02;23.90;11.50
11009;DHT22;5557;51.670;7.788;2023-09-12T15:42:31;23.90;11.50
11009;DHT22;5557;51.670;7.788;2023-09-12T15:45:04;23.90;11.90
11009;DHT22;5557;51.670;7.788;2023-09-12T15:47:33;23.90;12.00
11009;DHT22;5557;51.670;7.788;2023-09-12T15:50:00;23.90;14.40
11009;DHT22;5557;51.670;7.788;2023-09-12T15:52:27;23.90;14.80
11009;DHT22;5557;51.670;7.788;2023-09-12T15:54:55;23.80;14.40
11009;DHT22;5557;51.670;7.788;2023-09-12T15:57:23;23.70;14.30
11009;DHT22;5557;51.670;7.788;2023-09-12T15:59:50;23.60;15.10
11009;DHT22;5557;51.670;7.788;2023-09-12T16:02:19;23.50;16.00
11009;DHT22;5557;51.670;7.788;2023-09-12T16:04:46;23.50;15.90
11009;DHT22;5557;51.670;7.788;2023-09-12T16:07:13;23.50;17.80
11009;DHT22;5557;51.670;7.788;2023-09-12T16:09:41;23.50;18.60
11009;DHT22;5557;51.670;7.788;2023-09-12T16:12:08;23.50;17.40